Time;durP1;ratioP1;P1;durP2;ratioP2;P2;SDS_P1;SDS_P2;PMS_P1;PMS_P2;Temp;Humidity;BMP_temperature;BMP_pressure;BME280_temperature;BME280_humidity;BME280_pressure;Samples;Min_cycle;Max_cycle;Signal;HPM_P1;HPM_P2
2022/09/25 00:01:20;;;;;;;10.80;3.30;;;;;;;11.41;100.00;101542.03;5288015;28;20392;-74
2022/09/25 00:03:51;;;;;;;10.57;3.55;;;;;;;11.42;100.00;101540.16;5262459;28;20466;-74
2022/09/25 00:06:24;;;;;;;13.70;3.30;;;;;;;11.40;100.00;101540.34;5269042;28;20023;-74
2022/09/25 00:08:55;;;;;;;12.57;4.32;;;;;;;11.38;100.00;101541.47;5276319;28;20058;-74
2022/09/25 00:11:29;;;;;;;19.10;4.00;;;;;;;11.37;100.00;101546.00;5287953;28;20015;-72
2022/09/25 00:14:01;;;;;;;12.82;3.25;;;;;;;11.34;100.00;101542.78;5291782;28;20027;-73
2022/09/25 00:16:31;;;;;;;14.07;3.13;;;;;;;11.31;100.00;101541.25;5263625;28;20027;-73
2022/09/25 00:21:52;;;;;;;17.92;3.28;;;;;;;11.32;100.00;101542.09;5269817;28;20020;-72
2022/09/25 00:24:22;;;;;;;12.35;3.17;;;;;;;11.32;100.00;101544.78;5293811;28;20049;-73
2022/09/25 00:26:53;;;;;;;10.25;3.28;;;;;;;11.35;100.00;101553.38;5279171;28;20028;-72
2022/09/25 00:29:23;;;;;;;8.65;3.20;;;;;;;11.33;100.00;101555.38;5295968;28;20027;-72
2022/09/25 00:31:54;;;;;;;15.05;3.00;;;;;;;11.32;100.00;101550.16;5283735;28;20046;-72
2022/09/25 00:34:24;;;;;;;11.88;2.83;;;;;;;11.33;100.00;101552.69;5275437;28;20031;-72
2022/09/25 00:36:55;;;;;;;9.18;3.72;;;;;;;11.29;100.00;101556.66;5278604;28;20118;-72
2022/09/25 00:39:26;;;;;;;23.92;4.97;;;;;;;11.26;100.00;101559.69;5293901;27;20469;-74
2022/09/25 00:41:56;;;;;;;6.85;2.97;;;;;;;11.23;100.00;101559.13;5278959;27;20019;-73
2022/09/25 00:45:00;;;;;;;12.25;3.50;;;;;;;11.16;100.00;101561.59;5294300;28;20098;-73
2022/09/25 00:48:04;;;;;;;15.38;3.75;;;;;;;11.17;100.00;101562.44;5295000;28;20031;-73
2022/09/25 00:50:41;;;;;;;16.33;3.80;;;;;;;11.14;100.00;101567.13;5261609;28;20016;-73
2022/09/25 00:53:18;;;;;;;14.88;3.53;;;;;;;11.12;100.00;101563.72;5289719;28;20338;-75
2022/09/25 00:55:49;;;;;;;9.52;3.08;;;;;;;11.10;100.00;101570.25;5281549;28;20020;-74
2022/09/25 00:58:23;;;;;;;17.85;4.00;;;;;;;11.07;100.00;101571.41;5290800;28;20068;-74
2022/09/25 01:00:54;;;;;;;17.90;4.05;;;;;;;11.08;100.00;101572.25;5285552;28;20080;-73
2022/09/25 01:03:26;;;;;;;16.38;3.33;;;;;;;11.07;100.00;101571.41;5278691;28;20043;-74
2022/09/25 01:05:58;;;;;;;13.75;3.25;;;;;;;11.07;100.00;101576.78;5294101;28;20075;-74
2022/09/25 01:08:38;;;;;;;10.27;3.33;;;;;;;11.06;100.00;101580.47;5259115;28;20451;-74
2022/09/25 01:11:09;;;;;;;17.17;4.00;;;;;;;11.02;100.00;101580.91;5284785;28;20016;-73
2022/09/25 01:13:40;;;;;;;13.38;3.78;;;;;;;10.99;100.00;101576.66;5268631;28;20402;-73
2022/09/25 01:16:26;;;;;;;9.30;4.22;;;;;;;10.92;100.00;101577.44;5265905;28;20470;-74
2022/09/25 01:19:34;;;;;;;16.65;4.35;;;;;;;10.79;100.00;101578.66;5266732;28;20032;-73
2022/09/25 01:22:32;;;;;;;11.93;3.38;;;;;;;10.71;100.00;101577.72;5286597;28;20079;-73
2022/09/25 01:25:13;;;;;;;13.98;4.75;;;;;;;10.69;100.00;101582.34;5265836;28;20019;-72
2022/09/25 01:27:45;;;;;;;17.10;4.55;;;;;;;10.67;100.00;101579.84;5274478;28;20062;-73
2022/09/25 01:30:18;;;;;;;17.92;4.38;;;;;;;10.62;100.00;101582.97;5272898;28;20028;-73
2022/09/25 01:33:10;;;;;;;16.63;4.40;;;;;;;10.65;100.00;101586.34;5279221;28;20532;-73
2022/09/25 01:36:00;;;;;;;15.32;4.10;;;;;;;10.60;100.00;101586.81;5267062;28;20020;-73
2022/09/25 01:38:39;;;;;;;14.95;4.53;;;;;;;10.56;100.00;101583.56;5267316;28;20036;-73
2022/09/25 01:41:19;;;;;;;12.40;4.32;;;;;;;10.50;100.00;101584.16;5285918;28;20114;-72
2022/09/25 01:44:24;;;;;;;10.15;3.63;;;;;;;10.52;100.00;101584.00;5286659;28;20055;-73
2022/09/25 01:47:01;;;;;;;18.52;4.22;;;;;;;10.44;100.00;101581.19;5272745;28;20030;-73
2022/09/25 01:49:37;;;;;;;14.32;3.85;;;;;;;10.39;100.00;101581.63;5286208;28;20103;-73
2022/09/25 01:52:14;;;;;;;13.40;3.95;;;;;;;10.35;100.00;101588.31;5279716;28;20020;-73
2022/09/25 01:54:55;;;;;;;22.48;5.03;;;;;;;10.24;100.00;101589.34;5267522;28;20107;-73
2022/09/25 01:57:34;;;;;;;15.52;4.47;;;;;;;10.19;100.00;101586.22;5285232;28;20016;-73
2022/09/25 02:00:08;;;;;;;16.52;4.50;;;;;;;10.17;100.00;101596.22;5269653;28;20030;-74
2022/09/25 02:02:45;;;;;;;19.60;4.32;;;;;;;10.11;100.00;101594.97;5265089;27;20024;-74
2022/09/25 02:05:25;;;;;;;19.38;6.70;;;;;;;10.07;100.00;101601.63;5264870;28;20095;-73
2022/09/25 02:08:02;;;;;;;17.90;4.15;;;;;;;10.05;100.00;101597.41;5281202;28;20051;-73
2022/09/25 02:10:43;;;;;;;9.65;3.78;;;;;;;9.96;100.00;101591.06;5286490;28;20106;-74
2022/09/25 02:13:24;;;;;;;21.60;4.60;;;;;;;9.85;100.00;101592.06;5278624;28;20031;-73
2022/09/25 02:16:09;;;;;;;16.67;4.50;;;;;;;9.75;100.00;101591.25;5264972;28;20020;-73
2022/09/25 02:22:16;;;;;;;11.32;4.65;;;;;;;9.60;100.00;101590.81;5280713;28;20027;-73
2022/09/25 02:25:05;;;;;;;16.53;4.00;;;;;;;9.54;100.00;101590.56;5277967;28;20032;-74
2022/09/25 02:27:36;;;;;;;18.63;4.40;;;;;;;9.60;100.00;101585.47;5265385;28;20036;-73
2022/09/25 02:30:07;;;;;;;17.25;4.70;;;;;;;9.69;100.00;101583.78;5281966;28;20023;-73
2022/09/25 02:32:37;;;;;;;16.55;4.60;;;;;;;9.71;100.00;101580.94;5276369;28;20134;-74
2022/09/25 02:35:08;;;;;;;23.88;5.20;;;;;;;9.72;100.00;101588.00;5273648;28;20077;-74
2022/09/25 02:37:39;;;;;;;18.42;4.65;;;;;;;9.68;100.00;101582.06;5277090;28;20035;-74
2022/09/25 02:40:10;;;;;;;12.88;4.50;;;;;;;9.60;100.00;101572.06;5287416;28;20235;-74
2022/09/25 02:43:08;;;;;;;16.33;5.03;;;;;;;9.50;100.00;101578.44;5268818;28;20396;-74
2022/09/25 02:45:51;;;;;;;20.58;4.63;;;;;;;9.41;100.00;101573.91;5281113;28;20028;-73
2022/09/25 02:48:28;;;;;;;18.67;5.78;;;;;;;9.36;100.00;101571.66;5285242;28;20108;-73
2022/09/25 02:51:09;;;;;;;15.73;4.85;;;;;;;9.38;100.00;101575.03;5289756;28;20047;-73
2022/09/25 02:53:47;;;;;;;11.23;4.30;;;;;;;9.32;100.00;101575.59;5275923;28;20038;-73
2022/09/25 02:56:40;;;;;;;18.83;4.80;;;;;;;9.33;100.00;101582.63;5287742;28;20024;-72
2022/09/25 02:59:29;;;;;;;26.77;5.70;;;;;;;9.33;100.00;101574.59;5277356;28;20041;-73
2022/09/25 03:02:00;;;;;;;13.70;5.30;;;;;;;9.31;100.00;101582.78;5285871;28;20028;-73
2022/09/25 03:04:34;;;;;;;14.65;4.97;;;;;;;9.30;100.00;101578.41;5277152;28;20043;-73
2022/09/25 03:07:05;;;;;;;16.40;5.35;;;;;;;9.24;100.00;101581.66;5289666;28;20019;-72
2022/09/25 03:09:40;;;;;;;16.33;5.18;;;;;;;9.15;100.00;101577.13;5289051;28;20031;-73
2022/09/25 03:12:13;;;;;;;14.70;4.93;;;;;;;9.04;100.00;101575.44;5289804;28;20107;-72
2022/09/25 03:14:43;;;;;;;16.52;5.82;;;;;;;9.02;100.00;101577.38;5288116;28;20102;-72
2022/09/25 03:17:16;;;;;;;17.63;6.07;;;;;;;9.04;100.00;101583.47;5274664;28;20111;-72
2022/09/25 03:19:46;;;;;;;21.35;5.88;;;;;;;9.07;100.00;101577.81;5274826;28;20434;-72
2022/09/25 03:22:17;;;;;;;13.77;6.10;;;;;;;9.09;100.00;101577.72;5275362;28;20028;-72
2022/09/25 03:24:49;;;;;;;17.88;5.72;;;;;;;9.11;100.00;101582.91;5287400;28;20078;-72
2022/09/25 03:27:20;;;;;;;20.58;6.07;;;;;;;9.14;100.00;101585.31;5266363;28;20107;-72
2022/09/25 03:29:51;;;;;;;16.35;5.85;;;;;;;9.08;100.00;101590.22;5277237;28;20028;-72
2022/09/25 03:32:22;;;;;;;21.02;6.07;;;;;;;9.02;100.00;101581.91;5277443;28;20035;-72
2022/09/25 03:34:52;;;;;;;17.48;7.20;;;;;;;8.98;100.00;101577.81;5283351;28;20095;-72
2022/09/25 03:37:24;;;;;;;18.83;6.55;;;;;;;8.91;100.00;101580.19;5259349;28;20024;-72
2022/09/25 03:39:54;;;;;;;16.48;6.32;;;;;;;8.84;100.00;101576.38;5288248;28;20072;-73
2022/09/25 03:42:27;;;;;;;21.58;7.25;;;;;;;8.81;100.00;101582.84;5288725;28;20110;-73
2022/09/25 03:44:57;;;;;;;23.10;7.80;;;;;;;8.73;100.00;101577.31;5274114;28;20024;-71
2022/09/25 03:47:28;;;;;;;13.20;5.85;;;;;;;8.64;100.00;101583.50;5280097;28;20544;-72
2022/09/25 03:49:58;;;;;;;19.38;6.95;;;;;;;8.59;100.00;101579.56;5283549;28;20020;-73
2022/09/25 03:52:28;;;;;;;23.98;8.07;;;;;;;8.56;100.00;101575.31;5278657;28;20020;-72
2022/09/25 03:54:59;;;;;;;20.05;7.07;;;;;;;8.56;100.00;101581.50;5270049;28;20027;-72
2022/09/25 03:57:29;;;;;;;18.40;7.13;;;;;;;8.59;100.00;101584.91;5287455;28;20419;-73
2022/09/25 04:00:01;;;;;;;20.95;7.35;;;;;;;8.60;100.00;101591.94;5278072;28;20382;-72
2022/09/25 04:02:32;;;;;;;28.42;8.05;;;;;;;8.59;100.00;101582.22;5260781;28;20033;-72
2022/09/25 04:05:03;;;;;;;26.10;9.00;;;;;;;8.53;100.00;101576.44;5271882;28;20430;-72
2022/09/25 04:07:33;;;;;;;20.27;7.80;;;;;;;8.47;100.00;101590.31;5274122;28;20493;-72
2022/09/25 04:10:04;;;;;;;21.95;8.05;;;;;;;8.41;100.00;101579.34;5267247;28;20023;-72
2022/09/25 04:12:35;;;;;;;23.58;8.57;;;;;;;8.36;100.00;101571.72;5282642;28;20141;-72
2022/09/25 04:15:08;;;;;;;26.77;8.80;;;;;;;8.35;100.00;101582.50;5286866;28;20106;-70
2022/09/25 04:17:38;;;;;;;18.05;7.78;;;;;;;8.30;100.00;101588.25;5273917;28;20431;-70
2022/09/25 04:20:09;;;;;;;29.00;8.45;;;;;;;8.30;100.00;101582.91;5277365;28;20024;-70
2022/09/25 04:22:39;;;;;;;25.60;8.30;;;;;;;8.29;100.00;101586.56;5266673;28;20481;-70
2022/09/25 04:25:10;;;;;;;24.75;8.07;;;;;;;8.25;100.00;101583.31;5278337;28;20474;-70
2022/09/25 04:27:44;;;;;;;20.08;8.43;;;;;;;8.24;100.00;101578.94;5269576;27;20106;-70
2022/09/25 04:30:14;;;;;;;17.08;7.07;;;;;;;8.26;100.00;101581.47;5280226;28;20055;-70
2022/09/25 04:35:34;;;;;;;20.40;7.60;;;;;;;8.10;100.00;101581.13;5269464;27;20024;-70
2022/09/25 04:38:04;;;;;;;15.32;6.40;;;;;;;8.03;100.00;101578.09;5277511;28;20024;-70
2022/09/25 04:40:36;;;;;;;18.05;7.63;;;;;;;7.96;100.00;101577.78;5273424;28;20385;-71
2022/09/25 04:43:07;;;;;;;21.63;7.60;;;;;;;7.91;100.00;101582.69;5287090;27;20028;-71
2022/09/25 04:45:37;;;;;;;20.75;7.93;;;;;;;7.97;100.00;101576.81;5286365;28;20020;-71
2022/09/25 04:48:08;;;;;;;22.20;8.02;;;;;;;8.07;100.00;101579.53;5287316;28;20042;-71
2022/09/25 04:50:38;;;;;;;20.77;8.32;;;;;;;8.12;100.00;101582.66;5273450;28;20079;-71
2022/09/25 04:53:08;;;;;;;19.95;8.15;;;;;;;8.12;100.00;101587.16;5273874;28;20017;-71
2022/09/25 04:55:39;;;;;;;27.05;10.48;;;;;;;8.08;100.00;101577.72;5277564;28;20020;-71
2022/09/25 04:58:10;;;;;;;30.50;8.75;;;;;;;8.04;100.00;101578.00;5264834;28;20020;-71
2022/09/25 05:00:41;;;;;;;25.40;8.52;;;;;;;8.02;100.00;101579.94;5266155;28;20122;-70
2022/09/25 05:03:11;;;;;;;22.92;8.85;;;;;;;8.03;100.00;101581.66;5261188;28;20381;-71
2022/09/25 05:05:42;;;;;;;25.65;8.55;;;;;;;8.00;100.00;101584.56;5277258;28;20027;-71
2022/09/25 05:08:12;;;;;;;21.00;9.52;;;;;;;7.94;100.00;101587.78;5267479;28;20527;-71
2022/09/25 05:10:43;;;;;;;25.27;7.97;;;;;;;7.94;100.00;101582.44;5279430;28;20057;-71
2022/09/25 05:13:13;;;;;;;28.02;10.88;;;;;;;7.98;100.00;101583.00;5273521;28;20453;-71
2022/09/25 05:15:44;;;;;;;19.52;8.82;;;;;;;7.99;100.00;101580.22;5271353;28;20031;-71
2022/09/25 05:18:16;;;;;;;18.98;9.20;;;;;;;8.01;100.00;101580.91;5274374;28;20036;-71
2022/09/25 05:20:48;;;;;;;25.15;9.43;;;;;;;7.96;100.00;101572.44;5270676;28;20028;-71
2022/09/25 05:23:20;;;;;;;25.73;8.18;;;;;;;7.92;100.00;101570.16;5275589;28;20116;-71
2022/09/25 05:25:53;;;;;;;17.95;7.78;;;;;;;7.85;100.00;101574.34;5272324;28;20114;-71
2022/09/25 05:28:24;;;;;;;22.55;8.68;;;;;;;7.81;100.00;101570.25;5272674;28;20098;-71
2022/09/25 05:31:00;;;;;;;18.65;8.30;;;;;;;7.81;100.00;101570.25;5286384;28;20126;-71
2022/09/25 05:33:34;;;;;;;22.90;9.05;;;;;;;7.82;100.00;101572.78;5280442;28;20106;-71
2022/09/25 05:36:06;;;;;;;22.25;7.78;;;;;;;7.87;100.00;101567.91;5256424;28;20429;-71
2022/09/25 05:38:38;;;;;;;22.15;9.35;;;;;;;7.99;100.00;101569.53;5276163;28;20521;-71
2022/09/25 05:41:10;;;;;;;20.05;8.50;;;;;;;8.02;100.00;101573.75;5276793;28;20397;-71
2022/09/25 05:43:43;;;;;;;23.40;8.10;;;;;;;7.98;100.00;101566.97;5269129;28;20304;-71
2022/09/25 05:46:15;;;;;;;20.35;7.93;;;;;;;7.90;100.00;101572.97;5274013;28;20028;-71
2022/09/25 05:48:45;;;;;;;14.05;7.28;;;;;;;7.82;100.00;101580.78;5270952;28;20012;-71
2022/09/25 05:51:15;;;;;;;20.75;7.97;;;;;;;7.75;100.00;101577.81;5286170;28;20085;-71
2022/09/25 05:53:46;;;;;;;19.58;7.07;;;;;;;7.68;100.00;101575.78;5278876;28;20051;-71
2022/09/25 05:56:16;;;;;;;32.08;6.95;;;;;;;7.62;100.00;101577.13;5264588;28;20052;-72
2022/09/25 05:58:48;;;;;;;14.55;5.82;;;;;;;7.55;100.00;101577.81;5259036;28;20230;-71
2022/09/25 06:01:18;;;;;;;14.68;6.50;;;;;;;7.49;100.00;101574.66;5262679;28;20412;-71
2022/09/25 06:03:49;;;;;;;228.05;15.38;;;;;;;7.46;100.00;101574.06;5271939;28;20030;-71
2022/09/25 06:06:20;;;;;;;126.63;9.82;;;;;;;7.43;100.00;101575.19;5284984;28;20043;-71
2022/09/25 06:08:52;;;;;;;83.55;6.43;;;;;;;7.38;100.00;101577.41;5286437;28;20376;-71
2022/09/25 06:11:23;;;;;;;324.80;20.20;;;;;;;7.35;100.00;101571.47;5280695;28;20391;-71
2022/09/25 06:13:56;;;;;;;228.20;12.52;;;;;;;7.36;100.00;101567.81;5264521;28;20028;-71
2022/09/25 06:16:27;;;;;;;241.38;12.38;;;;;;;7.35;100.00;101566.97;5264171;28;20431;-71
2022/09/25 06:18:57;;;;;;;271.95;11.73;;;;;;;7.42;100.00;101559.28;5264877;28;20020;-71
2022/09/25 06:21:28;;;;;;;14.93;7.20;;;;;;;7.58;100.00;101569.50;5273104;28;20050;-71
2022/09/25 06:23:58;;;;;;;10.77;5.85;;;;;;;8.05;100.00;101571.66;5286049;28;20377;-71
2022/09/25 06:26:28;;;;;;;12.57;5.93;;;;;;;8.61;100.00;101580.25;5281757;28;20488;-71
2022/09/25 06:28:59;;;;;;;12.88;6.05;;;;;;;9.02;100.00;101581.91;5277055;28;20039;-71
2022/09/25 06:31:30;;;;;;;15.68;6.80;;;;;;;9.15;100.00;101578.97;5283395;28;20610;-71
2022/09/25 06:34:00;;;;;;;21.27;7.40;;;;;;;9.23;100.00;101582.63;5278720;28;20112;-71
2022/09/25 06:36:32;;;;;;;11.02;5.35;;;;;;;9.69;100.00;101582.91;5264066;28;20023;-71
2022/09/25 06:39:02;;;;;;;14.00;5.95;;;;;;;10.22;100.00;101590.44;5283949;28;20107;-71
2022/09/25 06:41:33;;;;;;;12.30;5.45;;;;;;;10.72;100.00;101595.50;5285831;28;20164;-71
2022/09/25 06:44:04;;;;;;;12.70;5.00;;;;;;;10.85;100.00;101591.47;5270618;28;20495;-71
2022/09/25 06:46:35;;;;;;;8.43;5.00;;;;;;;11.05;100.00;101594.03;5285408;28;20055;-71
2022/09/25 06:49:05;;;;;;;7.07;4.85;;;;;;;11.83;100.00;101602.34;5285673;28;20028;-71
2022/09/25 06:51:38;;;;;;;6.00;4.10;;;;;;;12.01;100.00;101589.72;5285502;28;20034;-71
2022/09/25 06:54:08;;;;;;;10.50;4.90;;;;;;;12.42;100.00;101576.50;5285699;27;20465;-72
2022/09/25 06:56:39;;;;;;;9.63;4.50;;;;;;;12.75;100.00;101573.94;5282721;28;20104;-71
2022/09/25 06:59:09;;;;;;;6.78;3.20;;;;;;;13.30;100.00;101576.97;5254434;28;20066;-72
2022/09/25 07:01:39;;;;;;;7.75;3.63;;;;;;;13.67;100.00;101571.13;5279957;28;20024;-71
2022/09/25 07:04:10;;;;;;;9.02;3.85;;;;;;;13.89;100.00;101576.84;5256663;28;20065;-72
2022/09/25 07:06:40;;;;;;;7.32;3.60;;;;;;;14.36;100.00;101573.38;5281894;28;20393;-72
2022/09/25 07:09:11;;;;;;;10.73;3.55;;;;;;;14.63;100.00;101572.97;5281428;28;20540;-72
2022/09/25 07:11:42;;;;;;;7.63;3.50;;;;;;;14.85;100.00;101581.31;5282402;28;20023;-71
2022/09/25 07:14:13;;;;;;;7.20;2.88;;;;;;;15.42;100.00;101578.28;5267367;28;20024;-72
2022/09/25 07:16:43;;;;;;;6.68;2.63;;;;;;;16.31;100.00;101576.63;5276089;28;20080;-71
2022/09/25 07:19:14;;;;;;;6.75;2.70;;;;;;;16.46;100.00;101588.28;5273464;28;20024;-72
2022/09/25 07:21:44;;;;;;;7.45;2.50;;;;;;;16.56;100.00;101586.13;5277840;28;20031;-71
2022/09/25 07:24:15;;;;;;;5.60;2.40;;;;;;;16.95;100.00;101595.00;5288370;28;20059;-72
2022/09/25 07:26:46;;;;;;;6.25;2.00;;;;;;;17.72;100.00;101597.94;5280765;28;20040;-72
2022/09/25 07:29:16;;;;;;;4.63;2.50;;;;;;;18.53;100.00;101608.38;5257977;28;20107;-72
2022/09/25 07:31:47;;;;;;;6.75;2.13;;;;;;;18.45;100.00;101605.81;5250005;28;20025;-71
2022/09/25 07:34:17;;;;;;;10.00;2.55;;;;;;;18.25;100.00;101603.78;5282953;28;20024;-71
2022/09/25 07:36:51;;;;;;;7.15;2.30;;;;;;;18.52;100.00;101604.78;5268719;28;20437;-71
2022/09/25 07:39:21;;;;;;;9.60;2.95;;;;;;;18.01;100.00;101605.06;5279864;28;20028;-71
2022/09/25 07:41:54;;;;;;;6.40;2.70;;;;;;;17.78;100.00;101609.91;5283601;28;20031;-71
2022/09/25 07:44:24;;;;;;;7.47;2.40;;;;;;;17.73;100.00;101615.91;5288278;28;20019;-71
2022/09/25 07:46:54;;;;;;;8.68;3.10;;;;;;;18.32;100.00;101610.13;5276754;28;20148;-71
2022/09/25 07:49:25;;;;;;;6.18;2.47;;;;;;;18.42;100.00;101615.16;5277379;28;20024;-71
2022/09/25 07:51:56;;;;;;;7.13;2.50;;;;;;;18.52;100.00;101610.22;5272675;28;20054;-71
2022/09/25 07:54:26;;;;;;;8.02;2.50;;;;;;;18.79;100.00;101611.25;5287880;28;20388;-71
2022/09/25 07:56:57;;;;;;;9.57;2.75;;;;;;;18.33;100.00;101603.66;5275060;28;20500;-71
2022/09/25 07:59:27;;;;;;;8.05;2.50;;;;;;;18.46;100.00;101608.31;5263965;28;20055;-71
2022/09/25 08:01:58;;;;;;;8.88;2.75;;;;;;;18.88;100.00;101593.72;5278487;28;20028;-71
2022/09/25 08:04:28;;;;;;;5.97;2.15;;;;;;;18.35;100.00;101596.13;5262580;28;20028;-71
2022/09/25 08:06:59;;;;;;;8.18;2.55;;;;;;;18.86;100.00;101597.66;5288409;28;20072;-71
2022/09/25 08:09:30;;;;;;;6.57;2.38;;;;;;;18.77;100.00;101599.72;5288057;28;20228;-71
2022/09/25 08:12:01;;;;;;;6.95;2.13;;;;;;;19.10;100.00;101601.75;5276363;28;20020;-71
2022/09/25 08:14:32;;;;;;;4.68;2.17;;;;;;;18.84;100.00;101599.78;5270516;28;20038;-71
2022/09/25 08:17:02;;;;;;;9.18;2.03;;;;;;;19.25;100.00;101601.59;5275856;27;20355;-71
2022/09/25 08:19:33;;;;;;;5.88;2.15;;;;;;;19.12;100.00;101611.34;5266811;28;20093;-71
2022/09/25 08:22:03;;;;;;;7.72;2.85;;;;;;;18.96;100.00;101600.00;5280095;28;20019;-71
2022/09/25 08:24:34;;;;;;;6.43;2.17;;;;;;;19.65;100.00;101618.84;5266167;28;20051;-71
2022/09/25 08:27:06;;;;;;;6.68;2.60;;;;;;;19.39;100.00;101608.75;5269383;28;20024;-71
2022/09/25 08:29:37;;;;;;;5.60;1.80;;;;;;;19.51;100.00;101609.78;5275437;28;20035;-71
2022/09/25 08:32:08;;;;;;;8.05;2.05;;;;;;;19.65;100.00;101606.09;5281247;28;20028;-71
2022/09/25 08:34:40;;;;;;;10.00;2.10;;;;;;;19.55;100.00;101602.91;5282032;28;20099;-71
2022/09/25 08:37:10;;;;;;;6.43;2.35;;;;;;;19.23;100.00;101600.94;5256910;28;20050;-72
2022/09/25 08:39:41;;;;;;;4.53;1.60;;;;;;;20.03;100.00;101610.06;5275366;28;20071;-72
2022/09/25 08:42:19;;;;;;;6.20;2.10;;;;;;;20.12;100.00;101608.81;5280315;28;20031;-72
2022/09/25 08:49:00;;;;;;;6.82;1.70;;;;;;;20.47;100.00;101608.56;5279679;28;20499;-72
2022/09/25 08:50:34;;;;;;;9.77;1.85;;;;;;;20.59;100.00;101596.81;5265381;27;20469;-73
2022/09/25 08:53:24;;;;;;;8.02;1.67;;;;;;;19.77;100.00;101600.00;5273007;28;20133;-72
2022/09/25 08:59:22;;;;;;;8.23;1.50;;;;;;;20.30;100.00;101594.53;5246888;28;20502;-72
2022/09/25 09:01:56;;;;;;;7.13;1.30;;;;;;;20.64;100.00;101585.28;5270217;28;20031;-72
2022/09/25 09:04:32;;;;;;;3.53;0.93;;;;;;;20.23;100.00;101594.56;5272749;28;20015;-71
2022/09/25 09:07:19;;;;;;;5.38;1.15;;;;;;;19.79;100.00;101595.22;5274777;28;20473;-72
2022/09/25 09:09:59;;;;;;;6.38;1.38;;;;;;;20.39;100.00;101593.28;5286543;28;20023;-72
2022/09/25 09:12:39;;;;;;;7.43;1.45;;;;;;;20.49;100.00;101571.91;5286793;28;20027;-72
2022/09/25 09:15:21;;;;;;;3.20;1.15;;;;;;;19.75;100.00;101585.78;5285870;27;20024;-72
2022/09/25 09:17:53;;;;;;;4.85;1.35;;;;;;;20.21;100.00;101583.03;5268293;28;20042;-72
2022/09/25 09:20:36;;;;;;;7.22;1.10;;;;;;;20.53;100.00;101578.56;5278367;28;20051;-71
2022/09/25 09:23:13;;;;;;;6.97;1.02;;;;;;;20.54;100.00;101582.16;5260842;28;20028;-71
2022/09/25 09:25:51;;;;;;;11.20;1.48;;;;;;;20.32;100.00;101587.81;5285559;28;20504;-71
2022/09/25 09:28:51;;;;;;;4.40;0.95;;;;;;;20.09;100.00;101579.28;5274425;28;20084;-71
2022/09/25 09:31:52;;;;;;;8.20;1.15;;;;;;;19.76;100.00;101582.00;5276388;28;20073;-71
2022/09/25 09:34:39;;;;;;;5.95;1.15;;;;;;;19.85;100.00;101580.75;5251416;28;20508;-71
2022/09/25 09:37:23;;;;;;;5.10;1.00;;;;;;;19.72;100.00;101573.41;5265239;28;20107;-71
2022/09/25 09:40:02;;;;;;;4.15;1.15;;;;;;;19.57;100.00;101579.03;5278421;28;20039;-71
2022/09/25 09:43:08;;;;;;;7.68;1.20;;;;;;;19.37;100.00;101580.88;5252629;28;20481;-71
2022/09/25 09:45:57;;;;;;;3.03;1.13;;;;;;;19.49;100.00;101581.97;5285362;28;20546;-71
2022/09/25 09:48:51;;;;;;;5.97;1.38;;;;;;;19.45;100.00;101577.97;5285969;28;20448;-71
2022/09/25 09:51:34;;;;;;;12.10;1.63;;;;;;;19.30;100.00;101572.72;5286184;28;20039;-71
2022/09/25 09:54:25;;;;;;;7.20;1.05;;;;;;;19.34;100.00;101567.72;5276401;28;20139;-71
2022/09/25 09:56:56;;;;;;;5.88;1.08;;;;;;;19.84;100.00;101569.03;5271280;28;20027;-71
2022/09/25 09:59:41;;;;;;;2.80;1.10;;;;;;;19.97;100.00;101565.44;5259653;28;20024;-71
2022/09/25 10:02:23;;;;;;;3.13;1.33;;;;;;;20.04;100.00;101573.63;5279094;28;20051;-71
2022/09/25 10:04:56;;;;;;;4.90;1.15;;;;;;;19.98;100.00;101575.31;5276160;28;20077;-71
2022/09/25 10:07:28;;;;;;;3.90;0.95;;;;;;;20.29;100.00;101563.75;5278081;28;20024;-71
2022/09/25 10:09:59;;;;;;;2.97;0.85;;;;;;;19.85;100.00;101567.16;5278503;28;20024;-71
2022/09/25 10:12:34;;;;;;;5.82;0.98;;;;;;;19.48;100.00;101569.41;5266058;28;20026;-71
2022/09/25 10:15:17;;;;;;;3.75;0.90;;;;;;;19.50;100.00;101567.31;5284143;28;20041;-71
2022/09/25 10:17:47;;;;;;;3.65;0.98;;;;;;;19.97;100.00;101564.63;5267547;27;20024;-72
2022/09/25 10:20:21;;;;;;;4.35;0.98;;;;;;;19.84;100.00;101560.88;5274579;28;20024;-72
2022/09/25 10:22:55;;;;;;;3.17;0.95;;;;;;;19.91;100.00;101561.69;5285990;28;20032;-72
2022/09/25 10:25:39;;;;;;;3.88;1.27;;;;;;;19.64;100.00;101551.88;5271468;28;20024;-71
2022/09/25 10:28:24;;;;;;;7.70;1.17;;;;;;;19.11;100.00;101562.63;5263692;28;20024;-72
2022/09/25 10:30:56;;;;;;;2.45;0.70;;;;;;;18.91;100.00;101553.56;5267947;28;20032;-71
2022/09/25 10:33:29;;;;;;;3.28;1.05;;;;;;;18.93;100.00;101556.94;5261307;28;20031;-71
2022/09/25 10:36:00;;;;;;;4.82;1.00;;;;;;;19.19;100.00;101553.44;5259200;28;20555;-71
2022/09/25 10:38:42;;;;;;;6.00;1.13;;;;;;;19.54;100.00;101556.84;5254563;28;20039;-71
2022/09/25 10:41:16;;;;;;;6.53;1.42;;;;;;;19.44;100.00;101556.41;5267685;28;20032;-71
2022/09/25 10:44:18;;;;;;;3.80;1.00;;;;;;;19.69;100.00;101553.97;5268750;28;20485;-71
2022/09/25 10:55:45;;;;;;;8.35;1.65;;;;;;;19.68;100.00;101564.00;5288834;28;20488;-72
2022/09/25 10:58:24;;;;;;;3.08;0.90;;;;;;;19.16;100.00;101560.13;5283902;28;20048;-71
2022/09/25 11:00:58;;;;;;;2.88;0.90;;;;;;;18.79;100.00;101559.59;5271101;28;20027;-71
2022/09/25 11:03:47;;;;;;;2.80;0.73;;;;;;;18.33;100.00;101548.47;5272954;28;20030;-71
2022/09/25 11:06:23;;;;;;;3.75;0.90;;;;;;;18.08;100.00;101548.97;5272134;28;20140;-71
2022/09/25 11:09:18;;;;;;;4.20;0.82;;;;;;;17.91;100.00;101549.44;5278379;28;20454;-71
2022/09/25 11:11:52;;;;;;;4.50;1.10;;;;;;;17.81;100.00;101539.75;5289071;28;20051;-71
2022/09/25 11:14:31;;;;;;;4.85;0.70;;;;;;;17.98;100.00;101539.50;5272470;28;20671;-71
2022/09/25 11:17:05;;;;;;;3.45;1.23;;;;;;;18.28;100.00;101535.50;5278928;28;20038;-71
2022/09/25 11:19:37;;;;;;;4.55;0.93;;;;;;;17.93;100.00;101541.97;5288923;28;20027;-71
2022/09/25 11:22:22;;;;;;;6.03;0.90;;;;;;;17.67;100.00;101540.69;5274934;28;20100;-71
2022/09/25 11:25:15;;;;;;;6.25;1.08;;;;;;;17.34;100.00;101553.94;5275920;28;20023;-71
2022/09/25 11:27:53;;;;;;;1.30;0.60;;;;;;;17.09;100.00;101548.06;5262570;28;20024;-71
2022/09/25 11:30:31;;;;;;;3.00;1.10;;;;;;;16.86;100.00;101544.66;5281286;28;20110;-71
2022/09/25 11:33:12;;;;;;;3.90;0.70;;;;;;;16.75;100.00;101549.53;5275519;28;20028;-71
2022/09/25 11:36:02;;;;;;;5.28;0.90;;;;;;;17.04;100.00;101548.63;5270124;27;20549;-71
2022/09/25 11:41:27;;;;;;;3.97;0.95;;;;;;;18.65;100.00;101538.81;5276020;28;20020;-71
2022/09/25 11:44:09;;;;;;;3.03;0.70;;;;;;;19.27;100.00;101542.34;5287761;28;20571;-72
2022/09/25 11:47:02;;;;;;;6.07;2.13;;;;;;;19.60;100.00;101534.28;5273143;27;20024;-72
2022/09/25 11:49:37;;;;;;;5.63;1.20;;;;;;;19.65;100.00;101532.59;5278000;28;20031;-71
2022/09/25 11:52:24;;;;;;;4.63;0.88;;;;;;;19.50;100.00;101537.38;5281736;28;20027;-71
2022/09/25 11:55:33;;;;;;;2.83;0.65;;;;;;;18.85;96.24;101528.88;5283001;28;20020;-71
2022/09/25 11:58:30;;;;;;;3.70;0.70;;;;;;;18.40;100.00;101527.63;5285434;28;20052;-71
2022/09/25 12:01:38;;;;;;;3.92;0.73;;;;;;;18.43;100.00;101518.25;5255716;28;20474;-71
2022/09/25 12:04:21;;;;;;;3.65;0.60;;;;;;;18.14;98.26;101517.44;5265609;28;20384;-71
2022/09/25 12:06:57;;;;;;;5.57;0.85;;;;;;;17.72;100.00;101512.94;5261124;28;20027;-71
2022/09/25 12:09:46;;;;;;;6.05;0.77;;;;;;;17.40;100.00;101514.34;5286154;28;20034;-71
2022/09/25 12:12:36;;;;;;;1.50;0.60;;;;;;;17.33;100.00;101507.00;5279148;28;20015;-71
2022/09/25 12:15:13;;;;;;;1.50;0.52;;;;;;;17.26;100.00;101507.97;5287409;28;20345;-71
2022/09/25 12:18:07;;;;;;;4.20;0.90;;;;;;;17.50;100.00;101498.59;5287944;28;20031;-71
2022/09/25 12:20:45;;;;;;;2.40;0.77;;;;;;;17.73;100.00;101492.97;5273609;28;20024;-71